createdAt,value
2017-06-11T00:04:13.415Z,0
2017-06-11T00:09:10.512Z,0
2017-06-11T00:14:07.112Z,0
2017-06-11T00:19:03.823Z,0
2017-06-11T00:23:59.350Z,0
2017-06-11T00:28:56.498Z,0
2017-06-11T00:33:52.217Z,0
2017-06-11T00:38:47.958Z,0
2017-06-11T00:43:44.882Z,0
2017-06-11T00:48:40.461Z,0
2017-06-11T00:53:36.336Z,0
2017-06-11T00:58:33.125Z,0
2017-06-11T01:03:29.045Z,0
2017-06-11T01:08:24.894Z,0
2017-06-11T01:13:20.677Z,0
2017-06-11T01:18:16.611Z,0
2017-06-11T01:23:12.587Z,0
2017-06-11T01:28:08.303Z,0
2017-06-11T01:33:04.201Z,0
2017-06-11T01:38:01.096Z,0
2017-06-11T01:42:56.874Z,0
2017-06-11T01:47:52.736Z,0
2017-06-11T01:52:48.822Z,0
2017-06-11T01:57:44.630Z,0
2017-06-11T02:02:42.024Z,0
2017-06-11T02:07:38.035Z,0
2017-06-11T02:12:33.902Z,0
2017-06-11T02:17:30.053Z,0
2017-06-11T02:22:26.378Z,0
2017-06-11T02:27:23.103Z,0
2017-06-11T02:32:18.427Z,0
2017-06-11T02:37:14.021Z,0
2017-06-11T02:42:10.009Z,0
2017-06-11T02:47:05.749Z,0
2017-06-11T02:52:01.424Z,0
2017-06-11T02:56:57.338Z,0
2017-06-11T03:01:54.232Z,0
2017-06-11T03:06:50.362Z,5
2017-06-11T03:11:46.208Z,5
2017-06-11T03:16:41.796Z,5
2017-06-11T03:21:38.797Z,10
2017-06-11T03:26:34.330Z,10
2017-06-11T03:31:31.562Z,15
2017-06-11T03:36:27.011Z,20
2017-06-11T03:41:24.342Z,30
2017-06-11T03:46:21.165Z,40
2017-06-11T03:51:16.871Z,40
2017-06-11T03:56:12.927Z,45
2017-06-11T04:01:08.890Z,45
2017-06-11T04:06:05.528Z,40
2017-06-11T04:11:01.499Z,40
2017-06-11T04:15:57.862Z,50
2017-06-11T04:20:53.857Z,75
2017-06-11T04:25:50.315Z,110
2017-06-11T04:30:46.554Z,145
2017-06-11T04:35:43.345Z,200
2017-06-11T04:40:41.139Z,165
2017-06-11T04:45:37.345Z,150
2017-06-11T04:50:34.653Z,95
2017-06-11T04:55:30.162Z,95
2017-06-11T05:00:27.131Z,110
2017-06-11T05:05:22.738Z,150
2017-06-11T05:10:19.985Z,210
2017-06-11T05:15:17.748Z,160
2017-06-11T05:20:15.138Z,150
2017-06-11T05:25:10.563Z,175
2017-06-11T05:30:06.574Z,165
2017-06-11T05:35:02.596Z,170
2017-06-11T05:39:59.804Z,185
2017-06-11T05:44:56.461Z,160
2017-06-11T05:49:53.131Z,145
2017-06-11T05:54:49.179Z,115
2017-06-11T05:59:44.742Z,115
2017-06-11T06:04:40.852Z,150
2017-06-11T06:09:36.959Z,145
2017-06-11T06:14:32.746Z,110
2017-06-11T06:19:28.582Z,135
2017-06-11T06:24:25.522Z,150
2017-06-11T06:29:22.144Z,190
2017-06-11T06:34:18.085Z,195
2017-06-11T06:39:14.883Z,230
2017-06-11T06:44:10.792Z,230
2017-06-11T06:49:08.018Z,270
2017-06-11T06:54:04.183Z,270
2017-06-11T06:59:02.366Z,270
2017-06-11T07:03:57.822Z,295
2017-06-11T07:08:54.343Z,285
2017-06-11T07:13:50.846Z,305
2017-06-11T07:18:47.061Z,345
2017-06-11T07:23:43.384Z,380
2017-06-11T07:28:39.792Z,330
2017-06-11T07:33:36.322Z,420
2017-06-11T07:38:32.613Z,425
2017-06-11T07:43:30.219Z,465
2017-06-11T07:48:26.459Z,1160
2017-06-11T07:53:24.977Z,875
2017-06-11T07:58:20.722Z,720
2017-06-11T08:03:17.628Z,1160
2017-06-11T08:08:14.918Z,785
2017-06-11T08:13:12.205Z,1410
2017-06-11T08:18:10.313Z,1310
2017-06-11T08:23:08.206Z,1635
2017-06-11T08:28:05.259Z,1480
2017-06-11T08:33:02.269Z,1705
2017-06-11T08:37:59.221Z,1655
2017-06-11T08:42:56.453Z,1735
2017-06-11T08:47:52.734Z,1710
2017-06-11T08:52:48.805Z,1290
2017-06-11T08:57:45.265Z,1480
2017-06-11T09:02:41.057Z,1325
2017-06-11T09:07:37.563Z,1960
2017-06-11T09:12:33.786Z,1020
2017-06-11T09:17:29.008Z,1205
2017-06-11T09:22:23.942Z,1055
2017-06-11T09:27:20.233Z,790
2017-06-11T09:32:15.336Z,995
2017-06-11T09:37:10.901Z,800
2017-06-11T09:42:06.917Z,1005
2017-06-11T09:47:03.040Z,1190
2017-06-11T09:51:59.119Z,950
2017-06-11T09:56:55.053Z,1060
2017-06-11T10:01:51.022Z,1415
2017-06-11T10:06:47.667Z,900
2017-06-11T10:11:44.311Z,1255
2017-06-11T10:16:40.449Z,865
2017-06-11T10:21:36.212Z,960
2017-06-11T10:26:31.406Z,900
2017-06-11T10:31:27.384Z,780
2017-06-11T10:36:23.320Z,1210
2017-06-11T10:41:20.251Z,1600
2017-06-11T10:46:17.044Z,1405
2017-06-11T10:51:14.520Z,2110
2017-06-11T10:56:11.665Z,1465
2017-06-11T11:01:07.444Z,905
2017-06-11T11:06:02.723Z,1040
2017-06-11T11:10:59.926Z,940
2017-06-11T11:15:58.421Z,1725
2017-06-11T11:20:54.484Z,950
2017-06-11T11:25:51.549Z,760
2017-06-11T11:30:45.861Z,635
2017-06-11T11:35:42.964Z,790
2017-06-11T11:40:38.693Z,610
2017-06-11T11:45:34.250Z,670
2017-06-11T11:50:30.248Z,960
2017-06-11T11:55:26.701Z,840
2017-06-11T12:00:22.669Z,735
2017-06-11T12:05:18.934Z,605
2017-06-11T12:15:23.991Z,440
2017-06-11T12:20:19.051Z,490
2017-06-11T12:25:15.031Z,550
2017-06-11T12:30:13.698Z,970
2017-06-11T12:35:10.446Z,815
2017-06-11T12:40:08.446Z,800
2017-06-11T12:45:06.017Z,610
2017-06-11T12:50:02.458Z,355
2017-06-11T12:54:58.255Z,445
2017-06-11T12:59:53.839Z,395
2017-06-11T13:04:51.448Z,300
2017-06-11T13:09:47.613Z,355
2017-06-11T13:14:44.295Z,315
2017-06-11T13:19:41.936Z,240
2017-06-11T13:24:38.322Z,270
2017-06-11T13:29:34.391Z,285
2017-06-11T13:34:31.312Z,255
2017-06-11T13:39:27.983Z,235
2017-06-11T13:44:23.602Z,190
2017-06-11T13:49:20.107Z,220
2017-06-11T13:54:16.975Z,220
2017-06-11T13:59:12.955Z,280
2017-06-11T14:04:09.054Z,185
2017-06-11T14:09:04.737Z,150
2017-06-11T14:14:01.454Z,120
2017-06-11T14:18:56.938Z,105
2017-06-11T14:23:52.659Z,115
2017-06-11T14:28:48.609Z,90
2017-06-11T14:33:44.550Z,95
2017-06-11T14:38:41.567Z,90
2017-06-11T14:43:38.301Z,110
2017-06-11T14:48:35.146Z,80
2017-06-11T14:53:31.095Z,105
2017-06-11T14:58:27.035Z,105
2017-06-11T15:08:28.423Z,115
2017-06-11T15:13:24.289Z,95
2017-06-11T15:18:19.957Z,95
2017-06-11T15:23:16.723Z,80
2017-06-11T15:28:13.599Z,115
2017-06-11T15:33:10.310Z,145
2017-06-11T15:38:07.979Z,170
2017-06-11T15:43:04.893Z,115
2017-06-11T15:48:00.729Z,110
2017-06-11T15:52:57.623Z,105
2017-06-11T15:57:54.526Z,120
2017-06-11T16:02:50.232Z,140
2017-06-11T16:07:46.368Z,115
2017-06-11T16:12:43.257Z,70
2017-06-11T16:17:38.991Z,80
2017-06-11T16:22:34.750Z,95
2017-06-11T16:27:30.945Z,125
2017-06-11T16:32:27.194Z,115
2017-06-11T16:37:23.257Z,115
2017-06-11T16:42:19.746Z,110
2017-06-11T16:47:15.857Z,120
2017-06-11T16:52:13.922Z,110
2017-06-11T16:57:09.600Z,105
2017-06-11T17:02:05.680Z,90
2017-06-11T17:07:02.397Z,60
2017-06-11T17:11:58.885Z,55
2017-06-11T17:16:55.326Z,80
2017-06-11T17:21:51.174Z,105
2017-06-11T17:26:48.547Z,105
2017-06-11T17:31:44.522Z,70
2017-06-11T17:36:42.296Z,75
2017-06-11T17:41:37.752Z,90
2017-06-11T17:46:34.098Z,80
2017-06-11T17:51:30.863Z,50
2017-06-11T17:56:28.753Z,20
2017-06-11T18:01:25.282Z,25
2017-06-11T18:06:20.452Z,25
2017-06-11T18:11:16.292Z,30
2017-06-11T18:16:12.131Z,40
2017-06-11T18:21:08.913Z,45
2017-06-11T18:26:04.632Z,60
2017-06-11T18:31:01.563Z,55
2017-06-11T18:35:57.358Z,35
2017-06-11T18:45:56.538Z,20
2017-06-11T18:50:52.398Z,35
2017-06-11T18:55:48.380Z,60
2017-06-11T19:00:45.449Z,25
2017-06-11T19:05:40.979Z,10
2017-06-11T19:10:37.920Z,10
2017-06-11T19:15:33.376Z,10
2017-06-11T19:20:29.238Z,10
2017-06-11T19:25:24.991Z,5
2017-06-11T19:30:20.983Z,0
2017-06-11T19:35:17.789Z,0
2017-06-11T19:40:13.393Z,0
2017-06-11T19:45:09.301Z,0
2017-06-11T19:50:06.273Z,0
2017-06-11T19:55:03.045Z,0
2017-06-11T19:59:59.743Z,0
2017-06-11T20:04:55.341Z,0
2017-06-11T20:09:52.272Z,0
2017-06-11T20:14:49.063Z,0
2017-06-11T20:19:44.953Z,0
2017-06-11T20:24:41.004Z,0
2017-06-11T20:29:36.894Z,0
2017-06-11T20:34:34.419Z,0
2017-06-11T20:39:31.248Z,0
2017-06-11T20:44:27.645Z,0
2017-06-11T20:49:25.606Z,0
2017-06-11T20:54:22.593Z,0
2017-06-11T20:59:18.058Z,0
2017-06-11T21:04:14.890Z,0
2017-06-11T21:09:11.412Z,0
2017-06-11T21:14:08.959Z,0
2017-06-11T21:19:06.100Z,0
2017-06-11T21:24:02.001Z,0
2017-06-11T21:29:00.064Z,0
2017-06-11T21:33:56.656Z,0
2017-06-11T21:38:52.203Z,0
2017-06-11T21:43:48.658Z,0
2017-06-11T21:48:45.439Z,0
2017-06-11T21:53:41.383Z,0
2017-06-11T21:58:38.997Z,0
2017-06-11T22:03:35.923Z,0
2017-06-11T22:08:32.586Z,0
2017-06-11T22:13:27.929Z,0
2017-06-11T22:18:24.330Z,0
2017-06-11T22:23:21.312Z,0
2017-06-11T22:28:18.987Z,0
2017-06-11T22:33:15.194Z,0
2017-06-11T22:38:11.879Z,0
2017-06-11T22:43:07.225Z,0
2017-06-11T22:48:02.958Z,0
2017-06-11T22:52:59.241Z,0
2017-06-11T22:57:55.062Z,0
2017-06-11T23:02:51.152Z,0
2017-06-11T23:07:46.753Z,0
2017-06-11T23:12:42.437Z,0
2017-06-11T23:17:38.133Z,0
2017-06-11T23:22:34.749Z,0
2017-06-11T23:32:41.830Z,0
2017-06-11T23:37:36.014Z,0
2017-06-11T23:42:31.919Z,0
2017-06-11T23:47:27.764Z,0
2017-06-11T23:52:24.533Z,0
2017-06-11T23:57:21.070Z,0
